Terminal Aerodrome Forecast
Issued by NWS

Home | Current Version | Previous Version | Text Only | Print | Product List | Glossary On
Versions: 1 2 3 4 5 6 7 8 9 10 11 12
000
FTUS45 KABQ 201140
TAFAEG
TAF
KAEG 201140Z 2012/2112 25015KT P6SM SCT060 BKN150
     FM201400 23015G25KT P6SM FEW060 SCT120
     FM202100 26018G25KT P6SM BKN080
     FM210000 29018G25KT P6SM VCSH BKN050
     FM210500 31010KT P6SM FEW060 SCT120=

USA.gov is the U.S. government's official web portal to all federal, state and local government web resources and services.